createdAt,value
2023-10-29T00:00:09.417Z,99567.82
2023-10-29T00:03:00.696Z,99560.67
2023-10-29T00:05:28.893Z,99553.55
2023-10-29T00:07:56.808Z,99564.93
2023-10-29T00:10:24.844Z,99568.75
2023-10-29T00:12:52.776Z,99566.46
2023-10-29T00:15:20.908Z,99568.70
2023-10-29T00:17:49.298Z,99570.82
2023-10-29T00:20:17.312Z,99567.05
2023-10-29T00:22:45.238Z,99569.96
2023-10-29T00:25:13.216Z,99563.70
2023-10-29T00:27:41.065Z,99561.17
2023-10-29T00:30:09.594Z,99565.98
2023-10-29T00:32:37.622Z,99566.20
2023-10-29T00:35:06.213Z,99564.81
2023-10-29T00:37:34.139Z,99563.68
2023-10-29T00:40:03.380Z,99564.34
2023-10-29T00:42:31.381Z,99559.02
2023-10-29T00:44:59.316Z,99568.21
2023-10-29T00:47:27.497Z,99569.95
2023-10-29T00:49:55.668Z,99568.73
2023-10-29T00:52:23.563Z,99565.08
2023-10-29T00:54:51.780Z,99561.09
2023-10-29T00:57:20.535Z,99556.57
2023-10-29T00:59:49.081Z,99555.73
2023-10-29T01:02:17.130Z,99555.05
2023-10-29T01:04:46.434Z,99558.19
2023-10-29T01:07:14.675Z,99561.60
2023-10-29T01:09:43.338Z,99560.14
2023-10-29T01:12:18.162Z,99553.88
2023-10-29T01:14:46.786Z,99555.42
2023-10-29T01:17:17.317Z,99558.60
2023-10-29T01:19:45.270Z,99556.21
2023-10-29T01:22:13.249Z,99558.71
2023-10-29T01:24:41.483Z,99559.25
2023-10-29T01:27:11.209Z,99561.97
2023-10-29T01:29:39.472Z,99564.29
2023-10-29T01:32:07.659Z,99556.70
2023-10-29T01:34:35.735Z,99556.33
2023-10-29T01:37:04.630Z,99552.59
2023-10-29T01:39:32.605Z,99551.16
2023-10-29T01:42:00.560Z,99553.98
2023-10-29T01:44:28.491Z,99553.52
2023-10-29T01:46:56.430Z,99553.43
2023-10-29T01:49:24.317Z,99554.41
2023-10-29T01:51:52.237Z,99555.84
2023-10-29T01:54:20.153Z,99553.52
2023-10-29T01:56:48.076Z,99559.29
2023-10-29T01:59:16.340Z,99555.54
2023-10-29T02:01:44.499Z,99549.48
2023-10-29T02:04:12.776Z,99546.75
2023-10-29T02:06:41.151Z,99543.04
2023-10-29T02:09:10.691Z,99546.36
2023-10-29T02:11:40.252Z,99544.11
2023-10-29T02:14:08.752Z,99540.50
2023-10-29T02:16:38.382Z,99537.06
2023-10-29T02:19:06.448Z,99538.27
2023-10-29T02:21:36.004Z,99533.55
2023-10-29T02:24:04.404Z,99531.20
2023-10-29T02:26:32.395Z,99530.77
2023-10-29T02:29:01.510Z,99531.73
2023-10-29T02:31:29.453Z,99529.04
2023-10-29T02:33:57.391Z,99525.48
2023-10-29T02:36:25.233Z,99525.52
2023-10-29T02:38:53.111Z,99526.77
2023-10-29T02:41:22.046Z,99526.30
2023-10-29T02:43:50.601Z,99528.05
2023-10-29T02:46:19.668Z,99531.02
2023-10-29T02:48:47.709Z,99533.99
2023-10-29T02:51:15.622Z,99532.55
2023-10-29T02:53:43.608Z,99532.81
2023-10-29T02:56:11.635Z,99538.25
2023-10-29T02:58:39.598Z,99540.52
2023-10-29T03:01:09.921Z,99542.59
2023-10-29T03:03:39.053Z,99541.98
2023-10-29T03:06:09.224Z,99543.55
2023-10-29T03:08:37.843Z,99547.80
2023-10-29T03:11:05.922Z,99547.67
2023-10-29T03:13:33.835Z,99559.85
2023-10-29T03:16:01.894Z,99561.05
2023-10-29T03:18:30.810Z,99564.82
2023-10-29T03:20:58.988Z,99566.20
2023-10-29T03:23:26.997Z,99565.06
2023-10-29T03:26:03.365Z,99562.64
2023-10-29T03:28:31.295Z,99562.18
2023-10-29T03:30:59.711Z,99566.42
2023-10-29T03:33:28.100Z,99560.48
2023-10-29T03:35:56.120Z,99565.89
2023-10-29T03:38:24.037Z,99568.11
2023-10-29T03:40:52.025Z,99567.83
2023-10-29T03:43:19.946Z,99562.49
2023-10-29T03:45:48.044Z,99555.36
2023-10-29T03:48:16.829Z,99547.33
2023-10-29T03:50:45.047Z,99549.09
2023-10-29T03:53:12.957Z,99548.16
2023-10-29T03:55:41.032Z,99552.16
2023-10-29T03:58:08.949Z,99553.48
2023-10-29T04:00:36.858Z,99553.65
2023-10-29T04:03:04.853Z,99557.11
2023-10-29T04:05:36.011Z,99561.77
2023-10-29T04:08:04.435Z,99564.68
2023-10-29T04:10:32.352Z,99564.85
2023-10-29T04:13:00.648Z,99570.16
2023-10-29T04:15:28.663Z,99572.84
2023-10-29T04:17:56.801Z,99573.58
2023-10-29T04:20:24.672Z,99577.17
2023-10-29T04:22:52.647Z,99581.61
2023-10-29T04:25:20.506Z,99578.52
2023-10-29T04:27:48.479Z,99575.80
2023-10-29T04:30:16.549Z,99568.44
2023-10-29T04:32:44.728Z,99564.35
2023-10-29T04:35:12.696Z,99562.74
2023-10-29T04:37:40.636Z,99560.04
2023-10-29T04:40:09.878Z,99561.48
2023-10-29T04:42:37.811Z,99556.70
2023-10-29T04:45:06.252Z,99555.87
2023-10-29T04:47:34.319Z,99553.02
2023-10-29T04:50:02.899Z,99555.55
2023-10-29T04:52:30.807Z,99553.29
2023-10-29T04:54:58.791Z,99554.46
2023-10-29T04:57:26.697Z,99555.20
2023-10-29T04:59:54.826Z,99549.44
2023-10-29T05:02:23.973Z,99542.77
2023-10-29T05:04:52.255Z,99545.20
2023-10-29T05:07:20.874Z,99538.65
2023-10-29T05:09:48.949Z,99539.31
2023-10-29T05:12:16.829Z,99539.63
2023-10-29T05:14:44.831Z,99535.80
2023-10-29T05:17:12.725Z,99530.24
2023-10-29T05:19:40.802Z,99524.98
2023-10-29T05:22:08.984Z,99525.44
2023-10-29T05:24:36.986Z,99526.17
2023-10-29T05:27:04.993Z,99529.02
2023-10-29T05:29:34.118Z,99526.00
2023-10-29T05:32:02.300Z,99520.98
2023-10-29T05:34:30.264Z,99521.02
2023-10-29T05:36:58.240Z,99518.88
2023-10-29T05:39:26.204Z,99518.55
2023-10-29T05:41:54.620Z,99515.73
2023-10-29T05:44:22.628Z,99517.73
2023-10-29T05:46:50.506Z,99516.81
2023-10-29T05:49:18.370Z,99519.00
2023-10-29T05:51:46.296Z,99532.50
2023-10-29T05:54:14.236Z,99532.42
2023-10-29T05:56:42.262Z,99530.00
2023-10-29T05:59:10.573Z,99528.98
2023-10-29T06:01:39.802Z,99526.40
2023-10-29T06:04:08.000Z,99523.95
2023-10-29T06:06:36.090Z,99524.21
2023-10-29T06:09:13.318Z,99526.37
2023-10-29T06:11:45.450Z,99524.52
2023-10-29T06:14:13.389Z,99524.17
2023-10-29T06:16:41.262Z,99523.66
2023-10-29T06:19:09.692Z,99522.66
2023-10-29T06:21:37.990Z,99523.77
2023-10-29T06:24:07.750Z,99523.36
2023-10-29T06:26:36.030Z,99523.02
2023-10-29T06:29:04.170Z,99524.26
2023-10-29T06:31:34.261Z,99521.27
2023-10-29T06:34:03.364Z,99518.85
2023-10-29T06:36:31.285Z,99517.68
2023-10-29T06:39:00.596Z,99516.60
2023-10-29T06:41:28.813Z,99515.30
2023-10-29T06:43:57.258Z,99512.17
2023-10-29T06:46:25.831Z,99513.67
2023-10-29T06:48:53.896Z,99513.98
2023-10-29T06:51:22.050Z,99513.95
2023-10-29T06:53:50.138Z,99511.22
2023-10-29T06:56:18.112Z,99511.44
2023-10-29T06:58:46.177Z,99504.38
2023-10-29T07:01:14.831Z,99507.85
2023-10-29T07:03:43.883Z,99510.38
2023-10-29T07:06:15.257Z,99509.81
2023-10-29T07:08:46.405Z,99511.77
2023-10-29T07:11:14.585Z,99500.92
2023-10-29T07:13:43.431Z,99495.39
2023-10-29T07:16:11.887Z,99488.95
2023-10-29T07:18:40.377Z,99489.61
2023-10-29T07:21:08.389Z,99487.50
2023-10-29T07:23:36.347Z,99481.12
2023-10-29T07:26:04.457Z,99476.85
2023-10-29T07:28:32.387Z,99481.27
2023-10-29T07:31:00.438Z,99483.14
2023-10-29T07:33:28.463Z,99482.90
2023-10-29T07:35:56.560Z,99485.77
2023-10-29T07:38:24.712Z,99485.95
2023-10-29T07:40:52.800Z,99495.79
2023-10-29T07:43:20.748Z,99489.59
2023-10-29T07:45:53.017Z,99486.89
2023-10-29T07:48:22.694Z,99485.98
2023-10-29T07:50:52.403Z,99488.38
2023-10-29T07:53:20.482Z,99493.73
2023-10-29T07:55:48.443Z,99494.07
2023-10-29T07:58:16.682Z,99480.61
2023-10-29T08:00:44.986Z,99476.49
2023-10-29T08:03:14.081Z,99471.36
2023-10-29T08:05:43.189Z,99458.11
2023-10-29T08:08:11.182Z,99463.05
2023-10-29T08:10:39.172Z,99466.98
2023-10-29T08:13:10.657Z,99467.33
2023-10-29T08:15:38.903Z,99470.35
2023-10-29T08:18:07.760Z,99469.60
2023-10-29T08:20:36.199Z,99475.77
2023-10-29T08:23:04.223Z,99476.22
2023-10-29T08:25:32.341Z,99474.51
2023-10-29T08:28:00.320Z,99478.84
2023-10-29T08:30:28.327Z,99483.50
2023-10-29T08:32:57.432Z,99483.70
2023-10-29T08:35:25.709Z,99479.37
2023-10-29T08:37:54.337Z,99475.92
2023-10-29T08:40:22.880Z,99470.38
2023-10-29T08:42:50.892Z,99467.52
2023-10-29T08:45:31.020Z,99474.30
2023-10-29T08:48:09.090Z,99478.86
2023-10-29T08:50:37.224Z,99484.36
2023-10-29T08:53:05.169Z,99477.73
2023-10-29T08:55:36.894Z,99474.55
2023-10-29T08:58:04.789Z,99468.08
2023-10-29T09:00:45.365Z,99463.23
2023-10-29T09:03:16.306Z,99468.38
2023-10-29T09:05:45.229Z,99463.66
2023-10-29T09:08:13.609Z,99449.52
2023-10-29T09:10:44.410Z,99452.17
2023-10-29T09:13:12.778Z,99452.99
2023-10-29T09:15:41.450Z,99455.30
2023-10-29T09:18:09.847Z,99456.25
2023-10-29T09:20:39.609Z,99451.22
2023-10-29T09:23:07.621Z,99450.47
2023-10-29T09:25:35.602Z,99451.69
2023-10-29T09:28:06.807Z,99451.36
2023-10-29T09:30:34.928Z,99452.54
2023-10-29T09:33:03.093Z,99454.86
2023-10-29T09:35:31.770Z,99460.21
2023-10-29T09:37:59.738Z,99467.99
2023-10-29T09:40:27.748Z,99470.27
2023-10-29T09:43:00.860Z,99470.93
2023-10-29T09:45:29.647Z,99463.41
2023-10-29T09:48:00.991Z,99454.13
2023-10-29T09:50:29.101Z,99445.97
2023-10-29T09:52:59.583Z,99437.90
2023-10-29T09:55:29.223Z,99432.11
2023-10-29T09:57:58.199Z,99435.46
2023-10-29T10:00:27.149Z,99431.34
2023-10-29T10:02:58.117Z,99429.27
2023-10-29T10:05:29.772Z,99408.53
2023-10-29T10:07:58.271Z,99416.00
2023-10-29T10:10:42.365Z,99413.98
2023-10-29T10:13:12.132Z,99412.12
2023-10-29T10:15:40.604Z,99404.56
2023-10-29T10:18:08.725Z,99400.08
2023-10-29T10:20:37.517Z,99393.52
2023-10-29T10:23:10.445Z,99393.27
2023-10-29T10:25:39.406Z,99394.60
2023-10-29T10:28:08.170Z,99392.38
2023-10-29T10:30:39.924Z,99385.89
2023-10-29T10:33:12.945Z,99387.27
2023-10-29T10:35:44.251Z,99392.83
2023-10-29T10:38:17.113Z,99392.14
2023-10-29T10:40:45.724Z,99397.54
2023-10-29T10:43:20.671Z,99400.16
2023-10-29T10:45:52.332Z,99392.90
2023-10-29T10:48:21.364Z,99390.51
2023-10-29T10:50:52.406Z,99387.89
2023-10-29T10:53:20.610Z,99387.73
2023-10-29T10:56:02.222Z,99385.70
2023-10-29T10:58:32.699Z,99380.13
2023-10-29T11:01:02.027Z,99383.63
2023-10-29T11:03:34.351Z,99378.12
2023-10-29T11:06:04.209Z,99378.89
2023-10-29T11:08:32.431Z,99388.60
2023-10-29T11:11:01.812Z,99390.36
2023-10-29T11:13:30.300Z,99391.31
2023-10-29T11:15:58.335Z,99386.86
2023-10-29T11:18:33.241Z,99385.27
2023-10-29T11:21:05.021Z,99383.02
2023-10-29T11:23:34.402Z,99391.76
2023-10-29T11:26:24.207Z,99383.25
2023-10-29T11:28:56.485Z,99375.43
2023-10-29T11:31:26.380Z,99376.55
2023-10-29T11:33:57.602Z,99378.27
2023-10-29T11:36:39.108Z,99379.29
2023-10-29T11:39:16.479Z,99370.36
2023-10-29T11:41:47.004Z,99362.14
2023-10-29T11:44:31.582Z,99354.31
2023-10-29T11:46:59.737Z,99349.27
2023-10-29T11:49:29.406Z,99345.44
2023-10-29T11:52:03.183Z,99347.45
2023-10-29T11:54:33.806Z,99349.39
2023-10-29T11:57:05.570Z,99349.45
2023-10-29T11:59:34.022Z,99347.54
2023-10-29T12:02:02.062Z,99342.66
2023-10-29T12:04:31.618Z,99336.39
2023-10-29T12:07:00.745Z,99326.08
2023-10-29T12:09:28.855Z,99313.30
2023-10-29T12:11:57.319Z,99311.30
2023-10-29T12:14:45.224Z,99306.70
2023-10-29T12:17:15.362Z,99302.31
2023-10-29T12:19:46.560Z,99292.40
2023-10-29T12:25:05.235Z,99285.30
2023-10-29T12:27:35.491Z,99280.81
2023-10-29T12:30:10.283Z,99290.33
2023-10-29T12:32:38.648Z,99297.05
2023-10-29T12:35:07.976Z,99297.09
2023-10-29T12:37:36.475Z,99294.65
2023-10-29T12:40:06.654Z,99292.16
2023-10-29T12:42:53.667Z,99286.25
2023-10-29T12:45:33.135Z,99295.04
2023-10-29T12:48:17.341Z,99301.77
2023-10-29T12:50:53.245Z,99298.71
2023-10-29T12:53:30.183Z,99298.28
2023-10-29T12:56:02.757Z,99289.22
2023-10-29T12:58:33.837Z,99294.79
2023-10-29T13:01:03.885Z,99293.52
2023-10-29T13:03:32.344Z,99290.54
2023-10-29T13:06:00.565Z,99298.84
2023-10-29T13:08:28.706Z,99310.91
2023-10-29T13:10:57.466Z,99320.52
2023-10-29T13:13:26.521Z,99308.67
2023-10-29T13:15:54.510Z,99310.81
2023-10-29T13:18:22.769Z,99319.41
2023-10-29T13:21:03.389Z,99320.06
2023-10-29T13:23:31.513Z,99324.89
2023-10-29T13:25:59.432Z,99326.83
2023-10-29T13:28:27.351Z,99318.33
2023-10-29T13:30:56.279Z,99332.38
2023-10-29T13:33:25.537Z,99323.37
2023-10-29T13:35:53.850Z,99305.94
2023-10-29T13:38:22.036Z,99303.20
2023-10-29T13:40:50.076Z,99308.08
2023-10-29T13:43:24.134Z,99309.26
2023-10-29T13:46:04.020Z,99296.39
2023-10-29T13:48:32.536Z,99287.05
2023-10-29T13:51:06.243Z,99300.98
2023-10-29T13:53:34.596Z,99298.16
2023-10-29T13:56:10.911Z,99285.98
2023-10-29T13:58:41.372Z,99278.02
2023-10-29T14:01:23.881Z,99261.20
2023-10-29T14:03:53.514Z,99262.30
2023-10-29T14:06:24.606Z,99261.15
2023-10-29T14:08:52.904Z,99260.42
2023-10-29T14:11:21.360Z,99258.69
2023-10-29T14:13:51.046Z,99269.70
2023-10-29T14:16:19.659Z,99270.36
2023-10-29T14:18:59.038Z,99275.45
2023-10-29T14:21:30.966Z,99287.81
2023-10-29T14:23:59.250Z,99293.94
2023-10-29T14:26:27.244Z,99299.05
2023-10-29T14:28:56.029Z,99296.61
2023-10-29T14:31:24.146Z,99294.39
2023-10-29T14:33:52.141Z,99300.28
2023-10-29T14:36:25.665Z,99297.58
2023-10-29T14:38:53.608Z,99298.55
2023-10-29T14:41:21.576Z,99302.39
2023-10-29T14:43:49.517Z,99305.44
2023-10-29T14:46:17.428Z,99305.77
2023-10-29T14:48:45.366Z,99300.06
2023-10-29T14:51:13.500Z,99309.52
2023-10-29T14:53:41.374Z,99321.70
2023-10-29T14:56:09.484Z,99300.78
2023-10-29T14:58:37.728Z,99255.14
2023-10-29T15:01:09.087Z,99259.79
2023-10-29T15:03:37.308Z,99280.00
2023-10-29T15:06:12.132Z,99287.10
2023-10-29T15:08:40.606Z,99286.60
2023-10-29T15:11:08.596Z,99282.92
2023-10-29T15:13:45.904Z,99286.27
2023-10-29T15:16:14.922Z,99289.27
2023-10-29T15:18:42.963Z,99285.96
2023-10-29T15:21:15.507Z,99282.11
2023-10-29T15:23:43.471Z,99279.67
2023-10-29T15:26:17.711Z,99277.33
2023-10-29T15:28:48.006Z,99280.52
2023-10-29T15:31:16.440Z,99278.09
2023-10-29T15:33:45.068Z,99276.30
2023-10-29T15:36:13.257Z,99278.38
2023-10-29T15:38:42.745Z,99278.73
2023-10-29T15:41:11.086Z,99279.35
2023-10-29T15:43:39.344Z,99274.98
2023-10-29T15:46:09.528Z,99279.34
2023-10-29T15:48:38.670Z,99276.09
2023-10-29T15:51:09.637Z,99272.15
2023-10-29T15:53:40.497Z,99263.95
2023-10-29T15:56:11.858Z,99259.12
2023-10-29T15:58:39.901Z,99261.77
2023-10-29T16:01:19.536Z,99267.30
2023-10-29T16:03:48.684Z,99262.88
2023-10-29T16:06:16.636Z,99268.80
2023-10-29T16:08:44.622Z,99264.63
2023-10-29T16:11:23.490Z,99267.80
2023-10-29T16:13:51.663Z,99262.00
2023-10-29T16:16:20.975Z,99264.45
2023-10-29T16:18:49.081Z,99270.85
2023-10-29T16:21:17.110Z,99271.02
2023-10-29T16:23:45.237Z,99269.77
2023-10-29T16:26:13.163Z,99271.63
2023-10-29T16:28:41.160Z,99276.73
2023-10-29T16:31:09.018Z,99279.58
2023-10-29T16:33:37.076Z,99280.41
2023-10-29T16:36:05.972Z,99279.62
2023-10-29T16:38:33.927Z,99277.95
2023-10-29T16:41:05.295Z,99284.66
2023-10-29T16:43:33.322Z,99285.41
2023-10-29T16:46:01.697Z,99284.52
2023-10-29T16:48:29.671Z,99275.33
2023-10-29T16:51:03.293Z,99261.48
2023-10-29T16:53:31.976Z,99268.27
2023-10-29T16:56:08.030Z,99276.73
2023-10-29T16:58:36.429Z,99277.88
2023-10-29T17:01:04.737Z,99270.94
2023-10-29T17:03:32.938Z,99273.65
2023-10-29T17:06:05.025Z,99269.06
2023-10-29T17:08:32.964Z,99271.33
2023-10-29T17:11:00.955Z,99271.79
2023-10-29T17:13:28.994Z,99266.92
2023-10-29T17:16:03.196Z,99268.29
2023-10-29T17:18:32.127Z,99276.67
2023-10-29T17:21:01.839Z,99274.42
2023-10-29T17:23:29.925Z,99275.00
2023-10-29T17:25:58.227Z,99271.86
2023-10-29T17:28:26.853Z,99275.93
2023-10-29T17:30:55.359Z,99264.38
2023-10-29T17:33:23.429Z,99260.39
2023-10-29T17:35:51.529Z,99258.09
2023-10-29T17:38:19.472Z,99253.09
2023-10-29T17:40:47.356Z,99246.36
2023-10-29T17:43:15.473Z,99243.98
2023-10-29T17:45:44.871Z,99243.89
2023-10-29T17:48:14.109Z,99241.09
2023-10-29T17:50:42.962Z,99237.91
2023-10-29T17:53:11.279Z,99239.39
2023-10-29T17:55:39.347Z,99243.51
2023-10-29T17:58:07.267Z,99247.83
2023-10-29T18:00:35.169Z,99244.80
2023-10-29T18:03:03.278Z,99248.67
2023-10-29T18:05:31.321Z,99259.42
2023-10-29T18:07:59.258Z,99260.73
2023-10-29T18:10:27.258Z,99266.30
2023-10-29T18:12:55.152Z,99264.96
2023-10-29T18:15:23.120Z,99261.16
2023-10-29T18:17:51.055Z,99254.23
2023-10-29T18:20:19.032Z,99254.24
2023-10-29T18:22:48.183Z,99251.55
2023-10-29T18:25:16.212Z,99246.14
2023-10-29T18:27:44.122Z,99245.44
2023-10-29T18:30:14.083Z,99246.98
2023-10-29T18:32:42.671Z,99252.55
2023-10-29T18:35:10.631Z,99261.00
2023-10-29T18:37:38.602Z,99256.69
2023-10-29T18:40:07.737Z,99254.24
2023-10-29T18:42:35.609Z,99257.25
2023-10-29T18:45:04.113Z,99250.59
2023-10-29T18:47:32.139Z,99244.61
2023-10-29T18:50:03.939Z,99234.45
2023-10-29T18:52:32.974Z,99231.52
2023-10-29T18:55:00.881Z,99237.52
2023-10-29T18:57:28.991Z,99227.02
2023-10-29T18:59:57.409Z,99228.83
2023-10-29T19:02:25.495Z,99226.33
2023-10-29T19:04:53.403Z,99228.62
2023-10-29T19:07:21.336Z,99220.17
2023-10-29T19:09:50.633Z,99232.98
2023-10-29T19:12:18.645Z,99228.77
2023-10-29T19:14:47.200Z,99229.34
2023-10-29T19:17:15.204Z,99228.42
2023-10-29T19:19:43.116Z,99231.77
2023-10-29T19:22:12.621Z,99221.50
2023-10-29T19:24:40.722Z,99226.45
2023-10-29T19:27:09.818Z,99229.16
2023-10-29T19:29:37.809Z,99230.89
2023-10-29T19:32:06.189Z,99233.06
2023-10-29T19:34:34.139Z,99224.96
2023-10-29T19:37:02.114Z,99222.42
2023-10-29T19:39:31.078Z,99219.15
2023-10-29T19:41:59.109Z,99227.58
2023-10-29T19:44:27.094Z,99225.56
2023-10-29T19:46:57.161Z,99221.05
2023-10-29T19:49:24.977Z,99218.23
2023-10-29T19:51:52.912Z,99222.98
2023-10-29T19:54:20.836Z,99220.53
2023-10-29T19:56:48.763Z,99222.45
2023-10-29T19:59:16.694Z,99215.41
2023-10-29T20:01:44.631Z,99223.41
2023-10-29T20:04:12.962Z,99227.30
2023-10-29T20:06:41.079Z,99224.89
2023-10-29T20:09:11.602Z,99231.39
2023-10-29T20:11:40.404Z,99233.70
2023-10-29T20:14:09.478Z,99238.44
2023-10-29T20:16:37.762Z,99241.84
2023-10-29T20:19:05.992Z,99233.75
2023-10-29T20:21:34.039Z,99231.87
2023-10-29T20:24:03.666Z,99237.79
2023-10-29T20:26:31.795Z,99237.92
2023-10-29T20:28:59.766Z,99241.96
2023-10-29T20:31:27.744Z,99235.33
2023-10-29T20:33:55.785Z,99237.77
2023-10-29T20:36:25.354Z,99239.83
2023-10-29T20:38:53.268Z,99246.11
2023-10-29T20:41:21.308Z,99246.05
2023-10-29T20:43:49.507Z,99246.80
2023-10-29T20:46:17.585Z,99255.84
2023-10-29T20:48:47.646Z,99262.09
2023-10-29T20:51:15.649Z,99264.56
2023-10-29T20:53:43.596Z,99272.36
2023-10-29T20:56:14.281Z,99279.69
2023-10-29T20:58:42.267Z,99272.91
2023-10-29T21:01:10.297Z,99271.35
2023-10-29T21:03:38.470Z,99282.67
2023-10-29T21:06:06.794Z,99297.32
2023-10-29T21:08:34.662Z,99295.41
2023-10-29T21:11:09.579Z,99303.62
2023-10-29T21:13:37.664Z,99311.24
2023-10-29T21:16:08.974Z,99315.11
2023-10-29T21:18:37.102Z,99318.98
2023-10-29T21:21:05.363Z,99323.24
2023-10-29T21:23:33.389Z,99326.66
2023-10-29T21:26:01.192Z,99333.52
2023-10-29T21:28:29.225Z,99327.02
2023-10-29T21:30:57.422Z,99354.21
2023-10-29T21:33:25.608Z,99373.67
2023-10-29T21:35:53.597Z,99376.76
2023-10-29T21:38:22.014Z,99375.46
2023-10-29T21:40:50.106Z,99381.50
2023-10-29T21:43:18.026Z,99377.96
2023-10-29T21:45:46.051Z,99383.50
2023-10-29T21:48:14.099Z,99393.61
2023-10-29T21:50:42.556Z,99375.64
2023-10-29T21:53:11.376Z,99385.44
2023-10-29T21:55:39.411Z,99391.77
2023-10-29T21:58:10.060Z,99395.18
2023-10-29T22:00:38.329Z,99385.56
2023-10-29T22:03:07.873Z,99374.92
2023-10-29T22:05:35.921Z,99369.17
2023-10-29T22:08:05.411Z,99379.07
2023-10-29T22:10:33.571Z,99385.29
2023-10-29T22:13:01.531Z,99384.45
2023-10-29T22:15:29.526Z,99375.39
2023-10-29T22:17:57.679Z,99375.02
2023-10-29T22:20:26.825Z,99377.76
2023-10-29T22:22:55.034Z,99379.85
2023-10-29T22:25:23.026Z,99374.72
2023-10-29T22:27:51.081Z,99382.88
2023-10-29T22:30:19.233Z,99379.81
2023-10-29T22:32:47.164Z,99370.48
2023-10-29T22:35:15.319Z,99364.67
2023-10-29T22:37:43.300Z,99365.44
2023-10-29T22:40:12.805Z,99370.52
2023-10-29T22:42:40.861Z,99370.98
2023-10-29T22:45:09.332Z,99367.92
2023-10-29T22:47:40.180Z,99356.71
2023-10-29T22:50:08.647Z,99344.96
2023-10-29T22:52:36.780Z,99335.45
2023-10-29T22:55:05.149Z,99321.85
2023-10-29T22:57:33.171Z,99308.95
2023-10-29T23:00:01.208Z,99302.66
2023-10-29T23:02:29.636Z,99290.96
2023-10-29T23:04:57.701Z,99285.35
2023-10-29T23:07:26.421Z,99296.01
2023-10-29T23:09:56.980Z,99292.73
2023-10-29T23:12:27.514Z,99293.53
2023-10-29T23:14:55.676Z,99290.94
2023-10-29T23:17:26.264Z,99293.50
2023-10-29T23:19:54.353Z,99292.38
2023-10-29T23:22:22.386Z,99294.36
2023-10-29T23:24:50.378Z,99302.58
2023-10-29T23:27:18.350Z,99320.36
2023-10-29T23:29:47.153Z,99323.17
2023-10-29T23:32:15.276Z,99308.02
2023-10-29T23:34:43.243Z,99302.94
2023-10-29T23:37:11.468Z,99304.80
2023-10-29T23:39:39.444Z,99308.71
2023-10-29T23:42:07.569Z,99308.63
2023-10-29T23:44:35.477Z,99307.80
2023-10-29T23:47:03.930Z,99306.64
2023-10-29T23:49:31.945Z,99304.58
2023-10-29T23:52:00.098Z,99299.73
2023-10-29T23:54:28.131Z,99295.10
2023-10-29T23:56:56.152Z,99297.28
2023-10-29T23:59:24.252Z,99308.05
